sensor_id;sensor_type;location;lat;lon;timestamp;P1;durP1;ratioP1;P2;durP2;ratioP2
74892;SDS011;63446;56.272;43.922;2023-05-18T00:01:11;35.38;;;12.30;;
74892;SDS011;63446;56.272;43.922;2023-05-18T00:03:39;29.17;;;10.75;;
74892;SDS011;63446;56.272;43.922;2023-05-18T00:06:05;31.95;;;11.02;;
74892;SDS011;63446;56.272;43.922;2023-05-18T00:08:35;32.13;;;10.43;;
74892;SDS011;63446;56.272;43.922;2023-05-18T00:11:03;31.15;;;11.07;;
74892;SDS011;63446;56.272;43.922;2023-05-18T00:13:30;29.25;;;11.00;;
74892;SDS011;63446;56.272;43.922;2023-05-18T00:15:57;30.58;;;11.88;;
74892;SDS011;63446;56.272;43.922;2023-05-18T00:18:23;27.03;;;10.73;;
74892;SDS011;63446;56.272;43.922;2023-05-18T00:20:51;24.10;;;10.85;;
74892;SDS011;63446;56.272;43.922;2023-05-18T00:23:26;22.45;;;10.88;;
74892;SDS011;63446;56.272;43.922;2023-05-18T00:25:58;29.38;;;11.18;;
74892;SDS011;63446;56.272;43.922;2023-05-18T00:28:25;32.00;;;11.60;;
74892;SDS011;63446;56.272;43.922;2023-05-18T00:30:52;30.80;;;10.87;;
74892;SDS011;63446;56.272;43.922;2023-05-18T00:33:20;29.38;;;12.10;;
74892;SDS011;63446;56.272;43.922;2023-05-18T00:35:46;29.80;;;11.63;;
74892;SDS011;63446;56.272;43.922;2023-05-18T00:38:12;28.48;;;11.23;;
74892;SDS011;63446;56.272;43.922;2023-05-18T00:40:40;30.53;;;11.10;;
74892;SDS011;63446;56.272;43.922;2023-05-18T00:43:07;25.20;;;11.23;;
74892;SDS011;63446;56.272;43.922;2023-05-18T00:45:33;29.70;;;11.02;;
74892;SDS011;63446;56.272;43.922;2023-05-18T00:47:59;33.23;;;12.50;;
74892;SDS011;63446;56.272;43.922;2023-05-18T00:50:25;24.48;;;10.88;;
74892;SDS011;63446;56.272;43.922;2023-05-18T00:52:51;25.73;;;10.98;;
74892;SDS011;63446;56.272;43.922;2023-05-18T00:55:17;27.80;;;10.77;;
74892;SDS011;63446;56.272;43.922;2023-05-18T00:57:43;22.80;;;11.00;;
74892;SDS011;63446;56.272;43.922;2023-05-18T01:00:12;26.80;;;11.20;;
74892;SDS011;63446;56.272;43.922;2023-05-18T01:02:40;26.80;;;11.20;;
74892;SDS011;63446;56.272;43.922;2023-05-18T01:05:11;27.88;;;10.82;;
74892;SDS011;63446;56.272;43.922;2023-05-18T01:07:38;25.40;;;11.30;;
74892;SDS011;63446;56.272;43.922;2023-05-18T01:10:08;30.10;;;11.98;;
74892;SDS011;63446;56.272;43.922;2023-05-18T01:12:36;30.60;;;11.57;;
74892;SDS011;63446;56.272;43.922;2023-05-18T01:15:15;26.50;;;11.68;;
74892;SDS011;63446;56.272;43.922;2023-05-18T01:20:36;29.75;;;11.75;;
74892;SDS011;63446;56.272;43.922;2023-05-18T01:28:24;28.95;;;11.02;;
74892;SDS011;63446;56.272;43.922;2023-05-18T01:30:57;28.70;;;11.35;;
74892;SDS011;63446;56.272;43.922;2023-05-18T01:33:23;32.53;;;11.40;;
74892;SDS011;63446;56.272;43.922;2023-05-18T01:35:50;32.53;;;11.63;;
74892;SDS011;63446;56.272;43.922;2023-05-18T01:38:24;30.93;;;12.53;;
74892;SDS011;63446;56.272;43.922;2023-05-18T01:43:32;29.08;;;11.15;;
74892;SDS011;63446;56.272;43.922;2023-05-18T01:46:03;31.15;;;12.25;;
74892;SDS011;63446;56.272;43.922;2023-05-18T01:48:36;29.92;;;11.40;;
74892;SDS011;63446;56.272;43.922;2023-05-18T01:51:03;31.57;;;11.77;;
74892;SDS011;63446;56.272;43.922;2023-05-18T01:53:52;29.23;;;11.88;;
74892;SDS011;63446;56.272;43.922;2023-05-18T01:56:23;26.20;;;11.35;;
74892;SDS011;63446;56.272;43.922;2023-05-18T01:58:50;29.08;;;12.15;;
74892;SDS011;63446;56.272;43.922;2023-05-18T02:01:17;26.25;;;11.43;;
74892;SDS011;63446;56.272;43.922;2023-05-18T02:03:45;26.23;;;11.43;;
74892;SDS011;63446;56.272;43.922;2023-05-18T02:06:11;26.25;;;11.10;;
74892;SDS011;63446;56.272;43.922;2023-05-18T02:08:37;26.55;;;11.38;;
74892;SDS011;63446;56.272;43.922;2023-05-18T02:11:03;25.23;;;11.75;;
74892;SDS011;63446;56.272;43.922;2023-05-18T02:13:29;26.53;;;11.70;;
74892;SDS011;63446;56.272;43.922;2023-05-18T02:15:56;26.67;;;11.93;;
74892;SDS011;63446;56.272;43.922;2023-05-18T02:18:22;29.40;;;12.43;;
74892;SDS011;63446;56.272;43.922;2023-05-18T02:20:56;26.10;;;11.85;;
74892;SDS011;63446;56.272;43.922;2023-05-18T02:23:25;29.40;;;12.80;;
74892;SDS011;63446;56.272;43.922;2023-05-18T02:25:51;33.10;;;13.37;;
74892;SDS011;63446;56.272;43.922;2023-05-18T02:28:20;30.77;;;13.75;;
74892;SDS011;63446;56.272;43.922;2023-05-18T02:30:46;30.60;;;13.65;;
74892;SDS011;63446;56.272;43.922;2023-05-18T02:33:14;29.67;;;13.73;;
74892;SDS011;63446;56.272;43.922;2023-05-18T02:35:42;26.08;;;13.43;;
74892;SDS011;63446;56.272;43.922;2023-05-18T02:38:08;29.63;;;13.37;;
74892;SDS011;63446;56.272;43.922;2023-05-18T02:40:34;25.52;;;14.30;;
74892;SDS011;63446;56.272;43.922;2023-05-18T02:43:00;28.58;;;14.98;;
74892;SDS011;63446;56.272;43.922;2023-05-18T02:45:27;28.67;;;15.18;;
74892;SDS011;63446;56.272;43.922;2023-05-18T02:47:54;27.20;;;15.37;;
74892;SDS011;63446;56.272;43.922;2023-05-18T02:50:20;30.58;;;14.32;;
74892;SDS011;63446;56.272;43.922;2023-05-18T02:52:46;31.63;;;15.10;;
74892;SDS011;63446;56.272;43.922;2023-05-18T02:55:14;29.42;;;14.48;;
74892;SDS011;63446;56.272;43.922;2023-05-18T02:58:02;28.23;;;14.97;;
74892;SDS011;63446;56.272;43.922;2023-05-18T03:00:48;28.95;;;15.52;;
74892;SDS011;63446;56.272;43.922;2023-05-18T03:03:16;30.40;;;15.68;;
74892;SDS011;63446;56.272;43.922;2023-05-18T03:05:43;31.92;;;16.27;;
74892;SDS011;63446;56.272;43.922;2023-05-18T03:08:09;32.40;;;16.42;;
74892;SDS011;63446;56.272;43.922;2023-05-18T03:10:36;32.17;;;17.10;;
74892;SDS011;63446;56.272;43.922;2023-05-18T03:13:03;30.42;;;16.80;;
74892;SDS011;63446;56.272;43.922;2023-05-18T03:15:29;34.08;;;16.88;;
74892;SDS011;63446;56.272;43.922;2023-05-18T03:17:57;29.00;;;17.07;;
74892;SDS011;63446;56.272;43.922;2023-05-18T03:20:25;28.63;;;18.15;;
74892;SDS011;63446;56.272;43.922;2023-05-18T03:22:52;29.98;;;18.90;;
74892;SDS011;63446;56.272;43.922;2023-05-18T03:25:18;32.03;;;18.60;;
74892;SDS011;63446;56.272;43.922;2023-05-18T03:27:45;41.87;;;21.20;;
74892;SDS011;63446;56.272;43.922;2023-05-18T03:30:12;42.28;;;25.35;;
74892;SDS011;63446;56.272;43.922;2023-05-18T03:32:38;44.95;;;26.60;;
74892;SDS011;63446;56.272;43.922;2023-05-18T03:35:05;44.95;;;25.23;;
74892;SDS011;63446;56.272;43.922;2023-05-18T03:37:32;36.70;;;22.37;;
74892;SDS011;63446;56.272;43.922;2023-05-18T03:39:58;42.58;;;24.70;;
74892;SDS011;63446;56.272;43.922;2023-05-18T03:42:34;37.20;;;23.90;;
74892;SDS011;63446;56.272;43.922;2023-05-18T03:44:59;38.50;;;25.07;;
74892;SDS011;63446;56.272;43.922;2023-05-18T03:47:26;40.03;;;26.48;;
74892;SDS011;63446;56.272;43.922;2023-05-18T03:49:52;40.58;;;25.90;;
74892;SDS011;63446;56.272;43.922;2023-05-18T03:52:18;43.72;;;25.48;;
74892;SDS011;63446;56.272;43.922;2023-05-18T03:54:47;38.15;;;26.08;;
74892;SDS011;63446;56.272;43.922;2023-05-18T03:57:17;37.17;;;26.30;;
74892;SDS011;63446;56.272;43.922;2023-05-18T03:59:43;39.30;;;26.00;;
74892;SDS011;63446;56.272;43.922;2023-05-18T04:02:10;40.90;;;26.60;;
74892;SDS011;63446;56.272;43.922;2023-05-18T04:04:37;43.58;;;27.42;;
74892;SDS011;63446;56.272;43.922;2023-05-18T04:07:11;37.40;;;26.38;;
74892;SDS011;63446;56.272;43.922;2023-05-18T04:09:47;38.80;;;27.50;;
74892;SDS011;63446;56.272;43.922;2023-05-18T04:12:13;36.55;;;27.80;;
74892;SDS011;63446;56.272;43.922;2023-05-18T04:14:39;36.70;;;27.52;;
74892;SDS011;63446;56.272;43.922;2023-05-18T04:17:06;35.58;;;28.38;;
74892;SDS011;63446;56.272;43.922;2023-05-18T04:19:33;38.05;;;28.38;;
74892;SDS011;63446;56.272;43.922;2023-05-18T04:22:00;40.23;;;28.43;;
74892;SDS011;63446;56.272;43.922;2023-05-18T04:24:31;34.72;;;28.85;;
74892;SDS011;63446;56.272;43.922;2023-05-18T04:27:00;39.58;;;29.38;;
74892;SDS011;63446;56.272;43.922;2023-05-18T04:29:28;37.88;;;28.73;;
74892;SDS011;63446;56.272;43.922;2023-05-18T04:31:54;42.17;;;29.33;;
74892;SDS011;63446;56.272;43.922;2023-05-18T04:34:27;35.17;;;28.40;;
74892;SDS011;63446;56.272;43.922;2023-05-18T04:36:54;40.15;;;27.33;;
74892;SDS011;63446;56.272;43.922;2023-05-18T04:39:21;44.47;;;29.25;;
74892;SDS011;63446;56.272;43.922;2023-05-18T04:41:50;36.08;;;28.33;;
74892;SDS011;63446;56.272;43.922;2023-05-18T04:44:26;39.45;;;31.25;;
74892;SDS011;63446;56.272;43.922;2023-05-18T04:46:54;33.73;;;29.60;;
74892;SDS011;63446;56.272;43.922;2023-05-18T04:49:22;34.92;;;27.70;;
74892;SDS011;63446;56.272;43.922;2023-05-18T04:51:51;29.60;;;26.40;;
74892;SDS011;63446;56.272;43.922;2023-05-18T04:54:24;34.75;;;28.60;;
74892;SDS011;63446;56.272;43.922;2023-05-18T04:56:53;32.28;;;26.58;;
74892;SDS011;63446;56.272;43.922;2023-05-18T04:59:19;37.00;;;27.37;;
74892;SDS011;63446;56.272;43.922;2023-05-18T05:01:45;30.88;;;26.83;;
74892;SDS011;63446;56.272;43.922;2023-05-18T05:04:12;28.88;;;23.23;;
74892;SDS011;63446;56.272;43.922;2023-05-18T05:06:38;33.45;;;26.05;;
74892;SDS011;63446;56.272;43.922;2023-05-18T05:09:03;35.13;;;24.90;;
74892;SDS011;63446;56.272;43.922;2023-05-18T05:11:30;28.40;;;24.80;;
74892;SDS011;63446;56.272;43.922;2023-05-18T05:13:56;31.63;;;25.27;;
74892;SDS011;63446;56.272;43.922;2023-05-18T05:16:22;31.98;;;24.23;;
74892;SDS011;63446;56.272;43.922;2023-05-18T05:18:49;33.93;;;23.70;;
74892;SDS011;63446;56.272;43.922;2023-05-18T05:21:15;41.53;;;25.30;;
74892;SDS011;63446;56.272;43.922;2023-05-18T05:23:41;28.65;;;23.50;;
74892;SDS011;63446;56.272;43.922;2023-05-18T05:26:08;31.00;;;21.52;;
74892;SDS011;63446;56.272;43.922;2023-05-18T05:28:34;28.97;;;20.93;;
74892;SDS011;63446;56.272;43.922;2023-05-18T05:30:59;31.98;;;21.27;;
74892;SDS011;63446;56.272;43.922;2023-05-18T05:33:25;32.00;;;21.10;;
74892;SDS011;63446;56.272;43.922;2023-05-18T05:35:52;32.87;;;21.27;;
74892;SDS011;63446;56.272;43.922;2023-05-18T05:38:18;25.65;;;20.10;;
74892;SDS011;63446;56.272;43.922;2023-05-18T05:40:44;27.05;;;20.98;;
74892;SDS011;63446;56.272;43.922;2023-05-18T05:43:10;31.08;;;19.95;;
74892;SDS011;63446;56.272;43.922;2023-05-18T05:45:36;30.13;;;19.57;;
74892;SDS011;63446;56.272;43.922;2023-05-18T05:48:06;22.30;;;18.40;;
74892;SDS011;63446;56.272;43.922;2023-05-18T05:50:33;22.25;;;17.38;;
74892;SDS011;63446;56.272;43.922;2023-05-18T05:53:00;25.70;;;17.52;;
74892;SDS011;63446;56.272;43.922;2023-05-18T05:55:30;24.20;;;18.43;;
74892;SDS011;63446;56.272;43.922;2023-05-18T05:57:55;22.48;;;17.65;;
74892;SDS011;63446;56.272;43.922;2023-05-18T06:00:22;22.13;;;16.70;;
74892;SDS011;63446;56.272;43.922;2023-05-18T06:02:53;20.92;;;13.50;;
74892;SDS011;63446;56.272;43.922;2023-05-18T06:05:28;17.57;;;13.43;;
74892;SDS011;63446;56.272;43.922;2023-05-18T06:07:55;19.17;;;12.40;;
74892;SDS011;63446;56.272;43.922;2023-05-18T06:10:22;19.38;;;10.50;;
74892;SDS011;63446;56.272;43.922;2023-05-18T06:12:48;14.32;;;10.52;;
74892;SDS011;63446;56.272;43.922;2023-05-18T06:15:14;13.13;;;8.63;;
74892;SDS011;63446;56.272;43.922;2023-05-18T06:17:40;15.45;;;8.85;;
74892;SDS011;63446;56.272;43.922;2023-05-18T06:20:09;15.82;;;9.02;;
74892;SDS011;63446;56.272;43.922;2023-05-18T06:22:36;15.55;;;8.38;;
74892;SDS011;63446;56.272;43.922;2023-05-18T06:25:28;18.87;;;9.70;;
74892;SDS011;63446;56.272;43.922;2023-05-18T06:28:08;12.45;;;7.57;;
74892;SDS011;63446;56.272;43.922;2023-05-18T06:30:39;16.48;;;8.18;;
74892;SDS011;63446;56.272;43.922;2023-05-18T06:33:19;14.73;;;8.20;;
74892;SDS011;63446;56.272;43.922;2023-05-18T06:35:48;17.42;;;8.77;;
74892;SDS011;63446;56.272;43.922;2023-05-18T06:38:14;13.50;;;8.07;;
74892;SDS011;63446;56.272;43.922;2023-05-18T06:40:40;16.15;;;8.68;;
74892;SDS011;63446;56.272;43.922;2023-05-18T06:43:07;16.33;;;7.13;;
74892;SDS011;63446;56.272;43.922;2023-05-18T06:45:42;17.70;;;6.63;;
74892;SDS011;63446;56.272;43.922;2023-05-18T06:48:14;20.57;;;7.67;;
74892;SDS011;63446;56.272;43.922;2023-05-18T06:50:40;14.30;;;7.10;;
74892;SDS011;63446;56.272;43.922;2023-05-18T06:53:06;15.30;;;6.50;;
74892;SDS011;63446;56.272;43.922;2023-05-18T06:55:32;11.30;;;5.43;;
74892;SDS011;63446;56.272;43.922;2023-05-18T06:57:58;8.67;;;4.80;;
74892;SDS011;63446;56.272;43.922;2023-05-18T07:00:24;7.50;;;3.65;;
74892;SDS011;63446;56.272;43.922;2023-05-18T07:02:50;10.75;;;4.13;;
74892;SDS011;63446;56.272;43.922;2023-05-18T07:05:17;7.73;;;3.53;;
74892;SDS011;63446;56.272;43.922;2023-05-18T07:07:43;11.32;;;3.83;;
74892;SDS011;63446;56.272;43.922;2023-05-18T07:10:09;13.27;;;3.97;;
74892;SDS011;63446;56.272;43.922;2023-05-18T07:12:35;6.50;;;3.10;;
74892;SDS011;63446;56.272;43.922;2023-05-18T07:15:01;7.13;;;3.27;;
74892;SDS011;63446;56.272;43.922;2023-05-18T07:17:29;8.02;;;2.55;;
74892;SDS011;63446;56.272;43.922;2023-05-18T07:19:56;5.25;;;2.10;;
74892;SDS011;63446;56.272;43.922;2023-05-18T07:22:22;6.67;;;2.17;;
74892;SDS011;63446;56.272;43.922;2023-05-18T07:24:48;7.15;;;2.05;;
74892;SDS011;63446;56.272;43.922;2023-05-18T07:27:13;4.55;;;2.10;;
74892;SDS011;63446;56.272;43.922;2023-05-18T07:29:39;6.90;;;1.90;;
74892;SDS011;63446;56.272;43.922;2023-05-18T07:32:06;8.23;;;2.20;;
74892;SDS011;63446;56.272;43.922;2023-05-18T07:34:32;4.97;;;1.75;;
74892;SDS011;63446;56.272;43.922;2023-05-18T07:36:58;4.60;;;2.00;;
74892;SDS011;63446;56.272;43.922;2023-05-18T07:39:24;5.72;;;2.08;;
74892;SDS011;63446;56.272;43.922;2023-05-18T07:41:54;5.70;;;2.08;;
74892;SDS011;63446;56.272;43.922;2023-05-18T07:44:21;10.73;;;2.50;;
74892;SDS011;63446;56.272;43.922;2023-05-18T07:46:47;6.77;;;1.90;;
74892;SDS011;63446;56.272;43.922;2023-05-18T07:49:13;7.55;;;1.80;;
74892;SDS011;63446;56.272;43.922;2023-05-18T07:51:39;7.50;;;2.10;;
74892;SDS011;63446;56.272;43.922;2023-05-18T07:54:07;4.15;;;1.55;;
74892;SDS011;63446;56.272;43.922;2023-05-18T07:56:33;6.55;;;1.65;;
74892;SDS011;63446;56.272;43.922;2023-05-18T07:59:00;6.03;;;1.77;;
74892;SDS011;63446;56.272;43.922;2023-05-18T08:01:26;3.70;;;1.40;;
74892;SDS011;63446;56.272;43.922;2023-05-18T08:03:54;4.38;;;1.45;;
74892;SDS011;63446;56.272;43.922;2023-05-18T08:06:21;3.42;;;1.50;;
74892;SDS011;63446;56.272;43.922;2023-05-18T08:08:48;5.97;;;1.35;;
74892;SDS011;63446;56.272;43.922;2023-05-18T08:11:14;4.60;;;1.40;;
74892;SDS011;63446;56.272;43.922;2023-05-18T08:13:39;4.32;;;1.50;;
74892;SDS011;63446;56.272;43.922;2023-05-18T08:16:06;3.10;;;1.40;;
74892;SDS011;63446;56.272;43.922;2023-05-18T08:18:32;5.05;;;1.20;;
74892;SDS011;63446;56.272;43.922;2023-05-18T08:20:58;3.72;;;1.40;;
74892;SDS011;63446;56.272;43.922;2023-05-18T08:23:24;2.80;;;1.40;;
74892;SDS011;63446;56.272;43.922;2023-05-18T08:25:50;3.13;;;1.50;;
74892;SDS011;63446;56.272;43.922;2023-05-18T08:28:16;5.43;;;1.30;;
74892;SDS011;63446;56.272;43.922;2023-05-18T08:30:41;3.17;;;1.50;;
74892;SDS011;63446;56.272;43.922;2023-05-18T08:33:07;3.35;;;1.40;;
74892;SDS011;63446;56.272;43.922;2023-05-18T08:35:33;5.97;;;1.50;;
74892;SDS011;63446;56.272;43.922;2023-05-18T08:37:59;3.08;;;1.40;;
74892;SDS011;63446;56.272;43.922;2023-05-18T08:40:30;3.60;;;1.40;;
74892;SDS011;63446;56.272;43.922;2023-05-18T08:43:02;5.90;;;1.67;;
74892;SDS011;63446;56.272;43.922;2023-05-18T08:45:35;4.05;;;1.30;;
74892;SDS011;63446;56.272;43.922;2023-05-18T08:48:07;5.72;;;1.60;;
74892;SDS011;63446;56.272;43.922;2023-05-18T08:50:35;3.45;;;1.70;;
74892;SDS011;63446;56.272;43.922;2023-05-18T08:53:03;9.35;;;2.00;;
74892;SDS011;63446;56.272;43.922;2023-05-18T08:55:30;6.70;;;1.83;;
74892;SDS011;63446;56.272;43.922;2023-05-18T08:58:03;6.65;;;2.08;;
74892;SDS011;63446;56.272;43.922;2023-05-18T09:00:31;6.07;;;1.65;;
74892;SDS011;63446;56.272;43.922;2023-05-18T09:02:58;4.28;;;1.50;;
74892;SDS011;63446;56.272;43.922;2023-05-18T09:05:24;5.25;;;1.80;;
74892;SDS011;63446;56.272;43.922;2023-05-18T09:07:50;4.53;;;1.67;;
74892;SDS011;63446;56.272;43.922;2023-05-18T09:10:17;5.60;;;1.55;;
74892;SDS011;63446;56.272;43.922;2023-05-18T09:12:44;4.22;;;1.83;;
74892;SDS011;63446;56.272;43.922;2023-05-18T09:15:13;5.30;;;1.83;;
74892;SDS011;63446;56.272;43.922;2023-05-18T09:17:40;5.68;;;1.80;;
74892;SDS011;63446;56.272;43.922;2023-05-18T09:20:07;4.57;;;1.83;;
74892;SDS011;63446;56.272;43.922;2023-05-18T09:22:34;3.90;;;2.20;;
74892;SDS011;63446;56.272;43.922;2023-05-18T09:25:01;5.65;;;1.95;;
74892;SDS011;63446;56.272;43.922;2023-05-18T09:27:29;3.40;;;1.95;;
74892;SDS011;63446;56.272;43.922;2023-05-18T09:29:56;3.95;;;1.90;;
74892;SDS011;63446;56.272;43.922;2023-05-18T09:32:23;6.97;;;1.90;;
74892;SDS011;63446;56.272;43.922;2023-05-18T09:34:50;5.57;;;2.08;;
74892;SDS011;63446;56.272;43.922;2023-05-18T09:37:17;6.05;;;2.10;;
74892;SDS011;63446;56.272;43.922;2023-05-18T09:39:44;6.60;;;2.30;;
74892;SDS011;63446;56.272;43.922;2023-05-18T09:42:37;4.07;;;1.85;;
74892;SDS011;63446;56.272;43.922;2023-05-18T09:45:17;3.97;;;2.17;;
74892;SDS011;63446;56.272;43.922;2023-05-18T09:47:45;3.47;;;2.10;;
74892;SDS011;63446;56.272;43.922;2023-05-18T09:50:11;5.97;;;2.22;;
74892;SDS011;63446;56.272;43.922;2023-05-18T09:52:43;7.22;;;2.30;;
74892;SDS011;63446;56.272;43.922;2023-05-18T09:55:11;4.65;;;2.20;;
74892;SDS011;63446;56.272;43.922;2023-05-18T09:57:45;3.80;;;2.07;;
74892;SDS011;63446;56.272;43.922;2023-05-18T10:00:14;4.55;;;2.10;;
74892;SDS011;63446;56.272;43.922;2023-05-18T10:02:42;4.25;;;2.10;;
74892;SDS011;63446;56.272;43.922;2023-05-18T10:07:52;4.50;;;2.10;;
74892;SDS011;63446;56.272;43.922;2023-05-18T10:10:21;4.57;;;2.00;;
74892;SDS011;63446;56.272;43.922;2023-05-18T10:12:50;5.75;;;2.80;;
74892;SDS011;63446;56.272;43.922;2023-05-18T10:15:18;6.63;;;2.40;;
74892;SDS011;63446;56.272;43.922;2023-05-18T10:17:47;4.50;;;2.10;;
74892;SDS011;63446;56.272;43.922;2023-05-18T10:20:19;5.47;;;2.13;;
74892;SDS011;63446;56.272;43.922;2023-05-18T10:22:46;6.50;;;2.10;;
74892;SDS011;63446;56.272;43.922;2023-05-18T10:25:24;4.55;;;1.90;;
74892;SDS011;63446;56.272;43.922;2023-05-18T10:27:54;8.32;;;2.40;;
74892;SDS011;63446;56.272;43.922;2023-05-18T10:30:22;5.57;;;2.25;;
74892;SDS011;63446;56.272;43.922;2023-05-18T10:32:48;6.00;;;2.20;;
74892;SDS011;63446;56.272;43.922;2023-05-18T10:35:16;4.70;;;2.00;;
74892;SDS011;63446;56.272;43.922;2023-05-18T10:37:44;3.88;;;1.80;;
74892;SDS011;63446;56.272;43.922;2023-05-18T10:40:17;5.55;;;2.20;;
74892;SDS011;63446;56.272;43.922;2023-05-18T10:42:46;4.85;;;2.00;;
74892;SDS011;63446;56.272;43.922;2023-05-18T10:45:14;6.53;;;2.08;;
74892;SDS011;63446;56.272;43.922;2023-05-18T10:47:40;3.47;;;2.00;;
74892;SDS011;63446;56.272;43.922;2023-05-18T10:50:08;7.45;;;2.00;;
74892;SDS011;63446;56.272;43.922;2023-05-18T10:52:37;4.07;;;1.83;;
74892;SDS011;63446;56.272;43.922;2023-05-18T10:55:06;4.78;;;2.17;;
74892;SDS011;63446;56.272;43.922;2023-05-18T10:57:44;5.20;;;1.80;;
74892;SDS011;63446;56.272;43.922;2023-05-18T11:00:15;4.57;;;1.87;;
74892;SDS011;63446;56.272;43.922;2023-05-18T11:02:41;6.10;;;1.90;;
74892;SDS011;63446;56.272;43.922;2023-05-18T11:05:08;5.20;;;1.70;;
74892;SDS011;63446;56.272;43.922;2023-05-18T11:07:35;3.85;;;1.80;;
74892;SDS011;63446;56.272;43.922;2023-05-18T11:10:02;3.25;;;1.70;;
74892;SDS011;63446;56.272;43.922;2023-05-18T11:12:35;3.67;;;1.80;;
74892;SDS011;63446;56.272;43.922;2023-05-18T11:15:02;5.80;;;1.90;;
74892;SDS011;63446;56.272;43.922;2023-05-18T11:17:30;3.70;;;1.90;;
74892;SDS011;63446;56.272;43.922;2023-05-18T11:27:50;5.35;;;1.90;;
74892;SDS011;63446;56.272;43.922;2023-05-18T11:30:29;5.25;;;2.00;;
74892;SDS011;63446;56.272;43.922;2023-05-18T11:33:07;4.00;;;1.80;;
74892;SDS011;63446;56.272;43.922;2023-05-18T11:38:46;3.40;;;1.80;;
74892;SDS011;63446;56.272;43.922;2023-05-18T11:46:39;5.17;;;1.87;;
74892;SDS011;63446;56.272;43.922;2023-05-18T11:49:16;4.40;;;1.80;;
74892;SDS011;63446;56.272;43.922;2023-05-18T11:51:53;5.18;;;2.20;;
74892;SDS011;63446;56.272;43.922;2023-05-18T11:54:23;4.22;;;2.03;;
74892;SDS011;63446;56.272;43.922;2023-05-18T11:56:54;4.50;;;2.00;;
74892;SDS011;63446;56.272;43.922;2023-05-18T11:59:30;6.97;;;2.03;;
74892;SDS011;63446;56.272;43.922;2023-05-18T12:02:08;6.40;;;2.20;;
74892;SDS011;63446;56.272;43.922;2023-05-18T12:04:45;4.05;;;1.88;;
74892;SDS011;63446;56.272;43.922;2023-05-18T12:07:17;5.40;;;1.92;;
74892;SDS011;63446;56.272;43.922;2023-05-18T12:09:45;3.70;;;1.88;;
74892;SDS011;63446;56.272;43.922;2023-05-18T12:12:12;4.83;;;1.80;;
74892;SDS011;63446;56.272;43.922;2023-05-18T12:14:41;5.15;;;2.13;;
74892;SDS011;63446;56.272;43.922;2023-05-18T12:17:10;3.85;;;1.92;;
74892;SDS011;63446;56.272;43.922;2023-05-18T12:19:42;5.70;;;1.80;;
74892;SDS011;63446;56.272;43.922;2023-05-18T12:22:12;5.60;;;1.95;;
74892;SDS011;63446;56.272;43.922;2023-05-18T12:24:38;6.33;;;1.90;;
74892;SDS011;63446;56.272;43.922;2023-05-18T12:27:05;5.97;;;2.33;;
74892;SDS011;63446;56.272;43.922;2023-05-18T12:29:33;5.10;;;1.67;;
74892;SDS011;63446;56.272;43.922;2023-05-18T12:32:05;4.03;;;2.03;;
74892;SDS011;63446;56.272;43.922;2023-05-18T12:34:31;4.65;;;2.10;;
74892;SDS011;63446;56.272;43.922;2023-05-18T12:36:57;5.70;;;1.97;;
74892;SDS011;63446;56.272;43.922;2023-05-18T12:39:23;5.20;;;2.00;;
74892;SDS011;63446;56.272;43.922;2023-05-18T12:41:50;5.63;;;2.00;;
74892;SDS011;63446;56.272;43.922;2023-05-18T12:44:16;6.30;;;2.50;;
74892;SDS011;63446;56.272;43.922;2023-05-18T12:46:42;5.22;;;2.30;;
74892;SDS011;63446;56.272;43.922;2023-05-18T12:49:08;7.60;;;2.45;;
74892;SDS011;63446;56.272;43.922;2023-05-18T12:51:35;4.90;;;1.92;;
74892;SDS011;63446;56.272;43.922;2023-05-18T12:54:03;4.53;;;1.97;;
74892;SDS011;63446;56.272;43.922;2023-05-18T12:56:49;4.22;;;1.88;;
74892;SDS011;63446;56.272;43.922;2023-05-18T12:59:18;5.95;;;1.95;;
74892;SDS011;63446;56.272;43.922;2023-05-18T13:01:45;5.28;;;1.90;;
74892;SDS011;63446;56.272;43.922;2023-05-18T13:04:11;5.57;;;1.70;;
74892;SDS011;63446;56.272;43.922;2023-05-18T13:06:37;3.57;;;1.87;;
74892;SDS011;63446;56.272;43.922;2023-05-18T13:09:10;5.90;;;1.88;;
74892;SDS011;63446;56.272;43.922;2023-05-18T13:11:38;6.28;;;1.88;;
74892;SDS011;63446;56.272;43.922;2023-05-18T13:14:06;5.88;;;2.10;;
74892;SDS011;63446;56.272;43.922;2023-05-18T13:16:38;4.40;;;2.00;;
74892;SDS011;63446;56.272;43.922;2023-05-18T13:19:09;5.43;;;2.00;;
74892;SDS011;63446;56.272;43.922;2023-05-18T13:21:35;4.72;;;1.80;;
74892;SDS011;63446;56.272;43.922;2023-05-18T13:24:02;6.63;;;2.00;;
74892;SDS011;63446;56.272;43.922;2023-05-18T13:26:29;6.57;;;2.20;;
74892;SDS011;63446;56.272;43.922;2023-05-18T13:28:55;7.70;;;2.47;;
74892;SDS011;63446;56.272;43.922;2023-05-18T13:31:22;4.60;;;1.95;;
74892;SDS011;63446;56.272;43.922;2023-05-18T13:33:48;4.20;;;2.35;;
74892;SDS011;63446;56.272;43.922;2023-05-18T13:36:14;4.95;;;2.08;;
74892;SDS011;63446;56.272;43.922;2023-05-18T13:38:41;5.10;;;1.92;;
74892;SDS011;63446;56.272;43.922;2023-05-18T13:41:08;7.97;;;2.10;;
74892;SDS011;63446;56.272;43.922;2023-05-18T13:43:41;5.97;;;2.33;;
74892;SDS011;63446;56.272;43.922;2023-05-18T13:46:07;7.90;;;2.20;;
74892;SDS011;63446;56.272;43.922;2023-05-18T13:48:33;4.85;;;2.00;;
74892;SDS011;63446;56.272;43.922;2023-05-18T13:50:58;8.07;;;2.17;;
74892;SDS011;63446;56.272;43.922;2023-05-18T13:53:25;4.25;;;2.00;;
74892;SDS011;63446;56.272;43.922;2023-05-18T13:55:51;7.03;;;2.17;;
74892;SDS011;63446;56.272;43.922;2023-05-18T13:58:17;8.20;;;2.20;;
74892;SDS011;63446;56.272;43.922;2023-05-18T14:00:43;6.80;;;2.35;;
74892;SDS011;63446;56.272;43.922;2023-05-18T14:03:10;8.48;;;2.55;;
74892;SDS011;63446;56.272;43.922;2023-05-18T14:05:36;8.18;;;2.50;;
74892;SDS011;63446;56.272;43.922;2023-05-18T14:08:02;6.73;;;2.40;;
74892;SDS011;63446;56.272;43.922;2023-05-18T14:10:29;11.98;;;2.60;;
74892;SDS011;63446;56.272;43.922;2023-05-18T14:12:55;8.27;;;2.47;;
74892;SDS011;63446;56.272;43.922;2023-05-18T14:15:20;11.00;;;2.43;;
74892;SDS011;63446;56.272;43.922;2023-05-18T14:17:46;11.95;;;3.00;;
74892;SDS011;63446;56.272;43.922;2023-05-18T14:20:12;14.50;;;3.53;;
74892;SDS011;63446;56.272;43.922;2023-05-18T14:22:38;17.17;;;3.17;;
74892;SDS011;63446;56.272;43.922;2023-05-18T14:25:04;14.55;;;3.30;;
74892;SDS011;63446;56.272;43.922;2023-05-18T14:27:30;13.20;;;3.78;;
74892;SDS011;63446;56.272;43.922;2023-05-18T14:29:57;16.57;;;4.00;;
74892;SDS011;63446;56.272;43.922;2023-05-18T14:32:22;20.23;;;6.25;;
74892;SDS011;63446;56.272;43.922;2023-05-18T14:34:48;25.80;;;10.90;;
74892;SDS011;63446;56.272;43.922;2023-05-18T14:37:20;32.88;;;15.60;;
74892;SDS011;63446;56.272;43.922;2023-05-18T14:39:46;36.20;;;18.38;;
74892;SDS011;63446;56.272;43.922;2023-05-18T14:42:12;38.53;;;20.58;;
74892;SDS011;63446;56.272;43.922;2023-05-18T14:44:37;48.60;;;22.53;;
74892;SDS011;63446;56.272;43.922;2023-05-18T14:47:03;29.23;;;14.03;;
74892;SDS011;63446;56.272;43.922;2023-05-18T14:49:30;26.50;;;14.02;;
74892;SDS011;63446;56.272;43.922;2023-05-18T14:51:55;26.40;;;11.50;;
74892;SDS011;63446;56.272;43.922;2023-05-18T14:54:22;26.40;;;14.73;;
74892;SDS011;63446;56.272;43.922;2023-05-18T14:56:47;29.75;;;16.58;;